createdAt,value
2022-07-27T00:02:13.361Z,63.71
2022-07-27T00:06:15.073Z,63.33
2022-07-27T00:10:17.148Z,63.76
2022-07-27T00:14:19.124Z,63.58
2022-07-27T00:18:20.754Z,63.39
2022-07-27T00:22:23.544Z,63.81
2022-07-27T00:26:24.978Z,64.31
2022-07-27T00:30:26.516Z,64.08
2022-07-27T00:34:28.558Z,64.33
2022-07-27T00:38:30.482Z,64.32
2022-07-27T00:42:32.486Z,64.01
2022-07-27T00:46:34.206Z,63.63
2022-07-27T00:50:36.578Z,63.62
2022-07-27T00:54:38.396Z,63.93
2022-07-27T00:58:40.507Z,64.41
2022-07-27T01:02:45.704Z,63.47
2022-07-27T01:06:49.382Z,63.81
2022-07-27T01:10:54.995Z,63.60
2022-07-27T01:14:58.163Z,63.22
2022-07-27T01:19:00.794Z,63.03
2022-07-27T01:23:02.398Z,63.64
2022-07-27T01:27:05.969Z,63.74
2022-07-27T01:31:07.784Z,63.29
2022-07-27T01:35:09.895Z,62.92
2022-07-27T01:39:13.139Z,63.26
2022-07-27T01:43:15.033Z,62.91
2022-07-27T01:47:16.556Z,62.78
2022-07-27T01:51:17.967Z,63.17
2022-07-27T01:55:19.934Z,63.13
2022-07-27T01:59:21.413Z,62.92
2022-07-27T02:03:23.231Z,63.10
2022-07-27T02:07:24.763Z,63.03
2022-07-27T02:11:45.061Z,63.10
2022-07-27T02:15:48.295Z,63.53
2022-07-27T02:19:50.890Z,63.63
2022-07-27T02:23:52.419Z,63.58
2022-07-27T02:27:54.217Z,64.11
2022-07-27T02:31:55.694Z,64.69
2022-07-27T02:35:57.415Z,65.34
2022-07-27T02:39:59.186Z,64.63
2022-07-27T02:44:01.139Z,64.97
2022-07-27T02:48:03.029Z,65.25
2022-07-27T02:52:06.043Z,64.84
2022-07-27T02:56:07.642Z,65.37
2022-07-27T03:00:13.096Z,65.43
2022-07-27T03:04:15.735Z,65.04
2022-07-27T03:08:17.311Z,65.68
2022-07-27T03:12:18.967Z,65.69
2022-07-27T03:16:20.739Z,66.03
2022-07-27T03:20:22.842Z,66.11
2022-07-27T03:24:24.606Z,66.34
2022-07-27T03:28:26.338Z,66.09
2022-07-27T03:32:28.399Z,66.29
2022-07-27T03:36:30.671Z,66.04
2022-07-27T03:40:34.016Z,66.35
2022-07-27T03:44:35.548Z,66.30
2022-07-27T03:48:37.404Z,66.07
2022-07-27T03:52:38.911Z,66.50
2022-07-27T03:56:42.331Z,66.67
2022-07-27T04:00:45.299Z,66.68
2022-07-27T04:04:46.861Z,67.36
2022-07-27T04:08:48.344Z,67.00
2022-07-27T04:12:52.272Z,66.41
2022-07-27T04:16:54.587Z,66.44
2022-07-27T04:20:56.435Z,66.41
2022-07-27T04:24:58.142Z,66.26
2022-07-27T04:29:00.144Z,66.82
2022-07-27T04:33:02.217Z,66.89
2022-07-27T04:37:06.062Z,66.54
2022-07-27T04:41:07.726Z,67.05
2022-07-27T04:45:09.690Z,66.81
2022-07-27T04:49:12.733Z,66.99
2022-07-27T04:53:15.110Z,66.99
2022-07-27T04:57:16.661Z,67.03
2022-07-27T05:01:18.282Z,67.06
2022-07-27T05:05:19.960Z,66.97
2022-07-27T05:09:22.511Z,67.22
2022-07-27T05:13:24.478Z,66.85
2022-07-27T05:17:28.564Z,67.14
2022-07-27T05:21:31.127Z,66.98
2022-07-27T05:25:33.278Z,66.75
2022-07-27T05:29:35.760Z,66.43
2022-07-27T05:33:38.396Z,66.59
2022-07-27T05:37:40.268Z,66.69
2022-07-27T05:41:42.001Z,65.83
2022-07-27T05:45:43.545Z,66.16
2022-07-27T05:49:45.190Z,65.75
2022-07-27T05:53:49.242Z,65.42
2022-07-27T05:57:50.853Z,65.24
2022-07-27T06:01:52.403Z,64.56
2022-07-27T06:06:13.951Z,64.76
2022-07-27T06:10:15.582Z,64.56
2022-07-27T06:14:17.205Z,64.47
2022-07-27T06:18:18.754Z,63.43
2022-07-27T06:22:21.486Z,63.57
2022-07-27T06:26:24.694Z,63.82
2022-07-27T06:30:26.837Z,63.63
2022-07-27T06:34:28.351Z,62.94
2022-07-27T06:38:30.718Z,62.97
2022-07-27T06:42:32.401Z,62.94
2022-07-27T06:46:34.014Z,62.39
2022-07-27T06:50:35.544Z,62.14
2022-07-27T06:54:37.039Z,61.79
2022-07-27T06:58:38.613Z,60.29
2022-07-27T07:02:53.204Z,60.54
2022-07-27T07:07:05.281Z,60.62
2022-07-27T07:11:13.115Z,59.92
2022-07-27T07:15:32.516Z,59.82
2022-07-27T07:19:40.887Z,59.18
2022-07-27T07:23:52.422Z,57.58
2022-07-27T07:28:11.043Z,57.15
2022-07-27T07:32:34.495Z,56.42
2022-07-27T07:41:37.223Z,55.33
2022-07-27T07:55:33.393Z,50.16
2022-07-27T07:59:47.167Z,49.30
2022-07-27T08:04:01.347Z,48.07
2022-07-27T08:23:31.869Z,43.55
2022-07-27T08:27:40.711Z,42.80
2022-07-27T08:36:06.456Z,43.23
2022-07-27T08:44:31.926Z,43.18
2022-07-27T08:48:33.568Z,43.36
2022-07-27T08:52:36.579Z,43.19
2022-07-27T08:56:38.069Z,43.84
2022-07-27T09:00:46.141Z,43.49
2022-07-27T09:04:47.672Z,44.01
2022-07-27T09:08:59.391Z,44.78
2022-07-27T09:13:17.925Z,44.21
2022-07-27T09:17:47.941Z,43.91
2022-07-27T09:21:49.797Z,42.69
2022-07-27T09:26:21.689Z,41.69
2022-07-27T09:30:31.152Z,42.32
2022-07-27T09:34:34.349Z,41.06
2022-07-27T09:38:36.176Z,42.25
2022-07-27T09:43:08.973Z,42.03
2022-07-27T09:46:59.950Z,43.13
2022-07-27T09:51:24.224Z,43.13
2022-07-27T09:55:25.926Z,41.82
2022-07-27T09:59:28.368Z,41.49
2022-07-27T10:03:31.314Z,41.21
2022-07-27T10:07:33.306Z,40.05
2022-07-27T10:11:36.420Z,41.45
2022-07-27T10:15:41.610Z,41.31
2022-07-27T10:19:50.450Z,41.22
2022-07-27T10:24:00.267Z,41.56
2022-07-27T10:28:10.360Z,39.56
2022-07-27T10:32:11.826Z,39.62
2022-07-27T10:36:18.326Z,38.79
2022-07-27T10:40:34.878Z,37.40
2022-07-27T10:44:36.295Z,37.34
2022-07-27T10:48:44.319Z,35.70
2022-07-27T10:52:55.753Z,35.65
2022-07-27T10:56:58.902Z,35.14
2022-07-27T11:01:09.229Z,34.96
2022-07-27T11:05:53.717Z,33.83
2022-07-27T11:14:03.896Z,35.19
2022-07-27T11:18:05.558Z,35.49
2022-07-27T11:22:27.686Z,35.37
2022-07-27T11:26:31.579Z,35.77
2022-07-27T11:30:33.017Z,36.25
2022-07-27T11:34:36.086Z,36.29
2022-07-27T11:38:55.302Z,36.20
2022-07-27T11:42:56.826Z,36.38
2022-07-27T11:47:02.010Z,35.39
2022-07-27T11:51:03.991Z,35.56
2022-07-27T11:55:06.180Z,35.68
2022-07-27T11:59:10.823Z,37.09
2022-07-27T12:03:46.863Z,35.46
2022-07-27T12:07:48.940Z,37.18
2022-07-27T12:11:57.934Z,37.00
2022-07-27T12:15:59.693Z,37.10
2022-07-27T12:20:04.259Z,36.79
2022-07-27T12:24:06.149Z,36.15
2022-07-27T12:28:17.901Z,36.08
2022-07-27T12:32:19.460Z,35.20
2022-07-27T12:36:26.985Z,34.24
2022-07-27T12:40:29.993Z,34.66
2022-07-27T12:44:36.621Z,33.91
2022-07-27T12:48:41.228Z,34.69
2022-07-27T12:52:53.180Z,34.28
2022-07-27T12:56:54.599Z,34.39
2022-07-27T13:00:56.232Z,34.52
2022-07-27T13:04:57.703Z,34.50
2022-07-27T13:08:59.226Z,34.74
2022-07-27T13:13:00.855Z,35.59
2022-07-27T13:17:02.418Z,34.36
2022-07-27T13:21:03.915Z,34.79
2022-07-27T13:25:16.584Z,36.09
2022-07-27T13:29:18.650Z,35.85
2022-07-27T13:33:20.939Z,35.10
2022-07-27T13:37:22.776Z,34.44
2022-07-27T13:41:24.264Z,34.43
2022-07-27T13:45:25.781Z,33.68
2022-07-27T13:49:27.317Z,33.62
2022-07-27T13:53:28.990Z,32.72
2022-07-27T13:57:30.359Z,32.70
2022-07-27T14:01:33.295Z,32.18
2022-07-27T14:05:36.899Z,32.09
2022-07-27T14:09:59.591Z,31.95
2022-07-27T14:14:01.893Z,30.47
2022-07-27T14:18:03.559Z,31.49
2022-07-27T14:22:05.131Z,32.44
2022-07-27T14:26:07.819Z,32.70
2022-07-27T14:30:09.789Z,33.75
2022-07-27T14:34:11.301Z,33.43
2022-07-27T14:38:12.875Z,35.13
2022-07-27T14:42:14.336Z,33.91
2022-07-27T14:46:15.844Z,34.78
2022-07-27T14:50:17.294Z,34.34
2022-07-27T14:54:18.916Z,33.87
2022-07-27T14:58:20.306Z,32.93
2022-07-27T15:02:22.254Z,32.04
2022-07-27T15:06:24.045Z,30.57
2022-07-27T15:10:25.521Z,30.95
2022-07-27T15:14:27.618Z,31.92
2022-07-27T15:18:35.076Z,31.29
2022-07-27T15:22:39.753Z,33.03
2022-07-27T15:26:41.412Z,33.68
2022-07-27T15:30:42.761Z,33.42
2022-07-27T15:34:44.184Z,33.50
2022-07-27T15:38:45.661Z,33.36
2022-07-27T15:42:47.218Z,34.54
2022-07-27T15:46:48.938Z,34.91
2022-07-27T15:50:53.435Z,34.99
2022-07-27T15:54:55.270Z,34.63
2022-07-27T15:58:56.807Z,35.08
2022-07-27T16:02:58.230Z,34.64
2022-07-27T16:06:59.958Z,34.66
2022-07-27T16:11:01.516Z,34.89
2022-07-27T16:15:03.713Z,34.71
2022-07-27T16:19:12.803Z,34.83
2022-07-27T16:23:18.995Z,34.35
2022-07-27T16:27:23.345Z,34.67
2022-07-27T16:31:24.961Z,34.52
2022-07-27T16:35:27.824Z,34.05
2022-07-27T16:39:29.378Z,34.16
2022-07-27T16:43:37.995Z,33.72
2022-07-27T16:47:40.240Z,33.88
2022-07-27T16:51:41.827Z,33.65
2022-07-27T16:55:43.252Z,33.76
2022-07-27T16:59:44.704Z,33.56
2022-07-27T17:03:49.103Z,33.66
2022-07-27T17:07:52.270Z,34.05
2022-07-27T17:11:54.434Z,34.89
2022-07-27T17:15:56.182Z,35.13
2022-07-27T17:19:57.813Z,34.55
2022-07-27T17:23:59.462Z,34.14
2022-07-27T17:28:00.921Z,34.33
2022-07-27T17:32:02.401Z,35.75
2022-07-27T17:36:04.415Z,35.45
2022-07-27T17:40:06.584Z,35.73
2022-07-27T17:44:08.118Z,36.44
2022-07-27T17:48:09.534Z,37.14
2022-07-27T17:52:11.602Z,36.21
2022-07-27T17:56:13.321Z,37.53
2022-07-27T18:00:15.998Z,37.48
2022-07-27T18:04:17.579Z,36.57
2022-07-27T18:08:19.462Z,37.53
2022-07-27T18:12:22.011Z,37.13
2022-07-27T18:16:23.629Z,37.83
2022-07-27T18:20:25.189Z,39.16
2022-07-27T18:24:28.961Z,40.40
2022-07-27T18:28:35.830Z,41.69
2022-07-27T18:32:40.691Z,41.70
2022-07-27T18:36:42.480Z,42.36
2022-07-27T18:40:45.530Z,43.40
2022-07-27T18:44:47.154Z,43.67
2022-07-27T18:48:49.503Z,44.68
2022-07-27T18:52:50.915Z,44.22
2022-07-27T18:56:52.399Z,44.67
2022-07-27T19:00:54.964Z,44.63
2022-07-27T19:04:57.743Z,45.14
2022-07-27T19:08:59.442Z,46.01
2022-07-27T19:13:00.822Z,46.12
2022-07-27T19:17:02.474Z,46.95
2022-07-27T19:21:04.234Z,46.82
2022-07-27T19:25:07.854Z,45.89
2022-07-27T19:29:11.066Z,43.59
2022-07-27T19:33:13.259Z,43.58
2022-07-27T19:37:14.734Z,43.80
2022-07-27T19:41:16.237Z,43.34
2022-07-27T19:45:17.750Z,41.77
2022-07-27T19:49:19.472Z,41.64
2022-07-27T19:53:21.052Z,42.24
2022-07-27T19:57:22.694Z,42.06
2022-07-27T20:01:25.777Z,43.43
2022-07-27T20:05:27.278Z,41.57
2022-07-27T20:09:29.040Z,42.41
2022-07-27T20:13:30.829Z,42.49
2022-07-27T20:17:36.875Z,42.32
2022-07-27T20:21:40.274Z,42.90
2022-07-27T20:25:42.119Z,43.15
2022-07-27T20:29:43.586Z,42.69
2022-07-27T20:33:45.165Z,42.84
2022-07-27T20:37:47.630Z,42.48
2022-07-27T20:41:49.066Z,42.88
2022-07-27T20:45:50.630Z,42.41
2022-07-27T20:49:52.425Z,43.10
2022-07-27T20:53:53.883Z,43.24
2022-07-27T20:57:55.357Z,43.31
2022-07-27T21:01:56.815Z,44.03
2022-07-27T21:05:58.279Z,43.67
2022-07-27T21:09:59.906Z,43.26
2022-07-27T21:14:01.557Z,43.31
2022-07-27T21:18:03.216Z,43.41
2022-07-27T21:22:04.849Z,42.97
2022-07-27T21:26:06.619Z,42.85
2022-07-27T21:30:09.631Z,42.72
2022-07-27T21:34:11.131Z,42.69
2022-07-27T21:38:12.732Z,42.54
2022-07-27T21:42:14.189Z,42.38
2022-07-27T21:46:16.008Z,42.24
2022-07-27T21:50:18.055Z,42.46
2022-07-27T21:54:20.117Z,42.32
2022-07-27T21:58:21.637Z,42.68
2022-07-27T22:02:23.097Z,42.81
2022-07-27T22:06:29.776Z,42.63
2022-07-27T22:10:31.970Z,42.70
2022-07-27T22:14:33.618Z,42.48
2022-07-27T22:18:35.760Z,42.51
2022-07-27T22:22:37.183Z,42.79
2022-07-27T22:26:38.605Z,42.80
2022-07-27T22:30:43.623Z,42.68
2022-07-27T22:35:05.430Z,42.74
2022-07-27T22:39:07.280Z,42.84
2022-07-27T22:43:08.817Z,43.01
2022-07-27T22:47:10.321Z,43.21
2022-07-27T22:51:11.878Z,43.09
2022-07-27T22:55:13.262Z,43.30
2022-07-27T22:59:14.807Z,43.60
2022-07-27T23:03:16.461Z,43.34
2022-07-27T23:07:18.035Z,43.74
2022-07-27T23:11:19.486Z,43.57
2022-07-27T23:15:21.275Z,43.81
2022-07-27T23:19:22.716Z,43.74
2022-07-27T23:23:24.427Z,43.79
2022-07-27T23:27:29.154Z,43.84
2022-07-27T23:31:30.775Z,44.11
2022-07-27T23:35:32.480Z,44.11
2022-07-27T23:39:34.760Z,44.25
2022-07-27T23:43:36.382Z,44.30
2022-07-27T23:47:39.045Z,44.62
2022-07-27T23:51:40.418Z,44.62
2022-07-27T23:55:42.386Z,44.99
2022-07-27T23:59:43.816Z,44.71
